Hauptseite
METAR-TAF:

METAR-TAF

Flughäfen :

Heeresflugplatz Fritzlar

Fritzlar, Deutschland

Breite: 51-07N, Länge: 009-17E, Höhe: 172 m

Beobachtung

Neuester Wetterbericht von vor 10 Minuten, um 23:20 UTC
Wind 2 kt aus Nordwest
Temperatur 17°C
Luftfeuchtigkeit 77%
Luftdruck 1020 hPa
Sichtweite 10 km oder mehr
Durchbrochene Bewölkung in der Höhe von 9000 ft

METAR: ETHF 212320Z 31002KT 9999 BKN090 17/13 Q1020 BLU FCST CANCEL

Zeit: 01:30 (23:30 UTC)

Prognose

Neuester Wetterbericht von vor 45 Minuten, um 22:45 UTC
Gültige Prognose vom 21 um 17 UTC bis 22 um 02 UTC
Wind 3 kt aus unterschiedlichen Richtungen
Sichtweite: 2300 m
Leicht bewölkt in der Höhe von 4000 ft
Aufgelockert bewölkt in der Höhe von 8000 ft

TAF: ETHF 212245Z 2117/2202 VRB03KT 9999 NSW FEW040 SCT080 CANCEL 2300

Wetterbeobachtungen und Prognosen von mehr als 4000 Flughäfen (METAR und TAF Bericht).

Die verfügbaren Stationen werden durch gelbe und rote Markierungen auf der Karte dargestellt.

Führen Sie die Maus auf sie, um den Namen der Station zu sehen.

Darauf klicken, um die Beobachtung von Wetterbeobachtungen und Prognosen zu sehen.

Um die Karte zu ändern : klicken Sie auf den grünen Tasten mit einem schwarzen Kreuz Zum Vergrößern, auf den grünen Button mit einem Gedankenstrich zu verkleinern, oder auf die grünen Pfeile für benachbarte Karten.


METAR-TAF: